MPV weather

Edward F Knapp State Airport
Barre/Montpelier, Vermont, United States

Public forecast

Using degrees Fahrenheit for public forecast. Weather courtesy of forecast.io.

Current aviation weather report (METAR) for Edward F Knapp State Airport

Retrieved 2019/10/17 06:39 UTC (0 seconds ago):

KMPV 170639Z AUTO 05004KT 6SM RA BR BKN005 BKN019 OVC039 07/07 A2930 RMK AO2 PRESFR P0010 T00720067

Aviation forecast (TAF) for Edward F Knapp State Airport

Retrieved 2019/10/17 06:30 UTC (3 minutes ago):

TAF KMPV 170527Z 1706/1806 03010KT 6SM RA BR OVC015 FM170800 35013KT 3SM +RA BR OVC008 WS020/07040KT FM171300 33017G25KT 6SM BR VCSH OVC015 FM171900 32011KT 6SM -RA BR OVC022 FM180100 31010KT P6SM VCSH OVC025